sensor_id;sensor_type;location;lat;lon;timestamp;temperature;humidity
22950;DHT22;11641;51.018;4.474;2022-08-21T00:00:24;17.90;99.90
22950;DHT22;11641;51.018;4.474;2022-08-21T00:02:59;17.80;99.90
22950;DHT22;11641;51.018;4.474;2022-08-21T00:05:28;17.80;99.90
22950;DHT22;11641;51.018;4.474;2022-08-21T00:07:54;17.80;99.90
22950;DHT22;11641;51.018;4.474;2022-08-21T00:10:20;17.80;99.90
22950;DHT22;11641;51.018;4.474;2022-08-21T00:12:47;17.80;99.90
22950;DHT22;11641;51.018;4.474;2022-08-21T00:15:21;17.80;99.90
22950;DHT22;11641;51.018;4.474;2022-08-21T00:17:50;17.70;99.90
22950;DHT22;11641;51.018;4.474;2022-08-21T00:20:17;17.80;99.90
22950;DHT22;11641;51.018;4.474;2022-08-21T00:22:45;17.80;99.90
22950;DHT22;11641;51.018;4.474;2022-08-21T00:25:13;17.80;99.90
22950;DHT22;11641;51.018;4.474;2022-08-21T00:27:40;17.70;99.90
22950;DHT22;11641;51.018;4.474;2022-08-21T00:30:09;17.70;99.90
22950;DHT22;11641;51.018;4.474;2022-08-21T00:32:40;17.70;99.90
22950;DHT22;11641;51.018;4.474;2022-08-21T00:35:08;17.70;99.90
22950;DHT22;11641;51.018;4.474;2022-08-21T00:37:37;17.60;99.90
22950;DHT22;11641;51.018;4.474;2022-08-21T00:40:04;17.60;99.90
22950;DHT22;11641;51.018;4.474;2022-08-21T00:42:31;17.60;99.90
22950;DHT22;11641;51.018;4.474;2022-08-21T00:44:59;17.60;99.90
22950;DHT22;11641;51.018;4.474;2022-08-21T00:47:27;17.50;99.90
22950;DHT22;11641;51.018;4.474;2022-08-21T00:49:53;17.50;99.90
22950;DHT22;11641;51.018;4.474;2022-08-21T00:52:28;17.50;99.90
22950;DHT22;11641;51.018;4.474;2022-08-21T00:54:57;17.40;99.90
22950;DHT22;11641;51.018;4.474;2022-08-21T00:57:29;17.40;99.90
22950;DHT22;11641;51.018;4.474;2022-08-21T01:00:00;17.40;99.90
22950;DHT22;11641;51.018;4.474;2022-08-21T01:02:28;17.30;99.90
22950;DHT22;11641;51.018;4.474;2022-08-21T01:04:54;17.20;99.90
22950;DHT22;11641;51.018;4.474;2022-08-21T01:07:20;17.20;99.90
22950;DHT22;11641;51.018;4.474;2022-08-21T01:09:47;17.20;99.90
22950;DHT22;11641;51.018;4.474;2022-08-21T01:12:15;17.20;99.90
22950;DHT22;11641;51.018;4.474;2022-08-21T01:14:42;17.20;99.90
22950;DHT22;11641;51.018;4.474;2022-08-21T01:17:12;17.10;99.90
22950;DHT22;11641;51.018;4.474;2022-08-21T01:19:39;17.10;99.90
22950;DHT22;11641;51.018;4.474;2022-08-21T01:22:05;17.00;99.90
22950;DHT22;11641;51.018;4.474;2022-08-21T01:24:31;17.00;99.90
22950;DHT22;11641;51.018;4.474;2022-08-21T01:26:58;17.00;99.90
22950;DHT22;11641;51.018;4.474;2022-08-21T01:29:46;17.00;99.90
22950;DHT22;11641;51.018;4.474;2022-08-21T01:32:17;16.90;99.90
22950;DHT22;11641;51.018;4.474;2022-08-21T01:34:44;16.90;99.90
22950;DHT22;11641;51.018;4.474;2022-08-21T01:37:13;16.80;99.90
22950;DHT22;11641;51.018;4.474;2022-08-21T01:39:42;16.80;99.90
22950;DHT22;11641;51.018;4.474;2022-08-21T01:42:08;16.80;99.90
22950;DHT22;11641;51.018;4.474;2022-08-21T01:44:35;16.70;99.90
22950;DHT22;11641;51.018;4.474;2022-08-21T01:47:07;16.70;99.90
22950;DHT22;11641;51.018;4.474;2022-08-21T01:49:35;16.60;99.90
22950;DHT22;11641;51.018;4.474;2022-08-21T01:52:03;16.60;99.90
22950;DHT22;11641;51.018;4.474;2022-08-21T01:54:32;16.50;99.90
22950;DHT22;11641;51.018;4.474;2022-08-21T01:57:01;16.40;99.90
22950;DHT22;11641;51.018;4.474;2022-08-21T01:59:30;16.40;99.90
22950;DHT22;11641;51.018;4.474;2022-08-21T02:01:55;16.40;99.90
22950;DHT22;11641;51.018;4.474;2022-08-21T02:04:21;16.40;99.90
22950;DHT22;11641;51.018;4.474;2022-08-21T02:06:47;16.40;99.90
22950;DHT22;11641;51.018;4.474;2022-08-21T02:09:13;16.40;99.90
22950;DHT22;11641;51.018;4.474;2022-08-21T02:11:40;16.30;99.90
22950;DHT22;11641;51.018;4.474;2022-08-21T02:14:14;16.30;99.90
22950;DHT22;11641;51.018;4.474;2022-08-21T02:16:44;16.30;99.90
22950;DHT22;11641;51.018;4.474;2022-08-21T02:19:14;16.30;99.90
22950;DHT22;11641;51.018;4.474;2022-08-21T02:21:44;16.30;99.90
22950;DHT22;11641;51.018;4.474;2022-08-21T02:24:10;16.30;99.90
22950;DHT22;11641;51.018;4.474;2022-08-21T02:26:36;16.30;99.90
22950;DHT22;11641;51.018;4.474;2022-08-21T02:29:03;16.20;99.90
22950;DHT22;11641;51.018;4.474;2022-08-21T02:31:28;16.30;99.90
22950;DHT22;11641;51.018;4.474;2022-08-21T02:33:54;16.20;99.90
22950;DHT22;11641;51.018;4.474;2022-08-21T02:36:20;16.20;99.90
22950;DHT22;11641;51.018;4.474;2022-08-21T02:38:46;16.20;99.90
22950;DHT22;11641;51.018;4.474;2022-08-21T02:41:18;16.20;99.90
22950;DHT22;11641;51.018;4.474;2022-08-21T02:43:44;16.20;99.90
22950;DHT22;11641;51.018;4.474;2022-08-21T02:46:13;16.20;99.90
22950;DHT22;11641;51.018;4.474;2022-08-21T02:48:43;16.20;99.90
22950;DHT22;11641;51.018;4.474;2022-08-21T02:51:15;16.20;99.90
22950;DHT22;11641;51.018;4.474;2022-08-21T02:53:47;16.10;99.90
22950;DHT22;11641;51.018;4.474;2022-08-21T02:56:15;16.10;99.90
22950;DHT22;11641;51.018;4.474;2022-08-21T02:58:48;16.00;99.90
22950;DHT22;11641;51.018;4.474;2022-08-21T03:01:15;15.90;99.90
22950;DHT22;11641;51.018;4.474;2022-08-21T03:03:44;15.90;99.90
22950;DHT22;11641;51.018;4.474;2022-08-21T03:06:13;15.80;99.90
22950;DHT22;11641;51.018;4.474;2022-08-21T03:08:39;15.80;99.90
22950;DHT22;11641;51.018;4.474;2022-08-21T03:11:07;15.90;99.90
22950;DHT22;11641;51.018;4.474;2022-08-21T03:13:33;15.90;99.90
22950;DHT22;11641;51.018;4.474;2022-08-21T03:15:59;16.00;99.90
22950;DHT22;11641;51.018;4.474;2022-08-21T03:18:27;16.00;99.90
22950;DHT22;11641;51.018;4.474;2022-08-21T03:20:52;16.00;99.90
22950;DHT22;11641;51.018;4.474;2022-08-21T03:23:18;16.00;99.90
22950;DHT22;11641;51.018;4.474;2022-08-21T03:25:47;16.00;99.90
22950;DHT22;11641;51.018;4.474;2022-08-21T03:28:19;16.00;99.90
22950;DHT22;11641;51.018;4.474;2022-08-21T03:30:47;16.00;99.90
22950;DHT22;11641;51.018;4.474;2022-08-21T03:33:16;16.00;99.90
22950;DHT22;11641;51.018;4.474;2022-08-21T03:35:48;16.00;99.90
22950;DHT22;11641;51.018;4.474;2022-08-21T03:38:15;15.90;99.90
22950;DHT22;11641;51.018;4.474;2022-08-21T03:40:44;15.90;99.90
22950;DHT22;11641;51.018;4.474;2022-08-21T03:43:12;15.90;99.90
22950;DHT22;11641;51.018;4.474;2022-08-21T03:45:38;15.90;99.90
22950;DHT22;11641;51.018;4.474;2022-08-21T03:48:06;15.90;99.90
22950;DHT22;11641;51.018;4.474;2022-08-21T03:50:34;15.90;99.90
22950;DHT22;11641;51.018;4.474;2022-08-21T03:53:01;15.90;99.90
22950;DHT22;11641;51.018;4.474;2022-08-21T03:55:29;15.80;99.90
22950;DHT22;11641;51.018;4.474;2022-08-21T03:57:57;15.90;99.90
22950;DHT22;11641;51.018;4.474;2022-08-21T04:00:23;15.80;99.90
22950;DHT22;11641;51.018;4.474;2022-08-21T04:02:49;15.80;99.90
22950;DHT22;11641;51.018;4.474;2022-08-21T04:05:19;15.80;99.90
22950;DHT22;11641;51.018;4.474;2022-08-21T04:07:57;15.70;99.90
22950;DHT22;11641;51.018;4.474;2022-08-21T04:10:28;15.70;99.90
22950;DHT22;11641;51.018;4.474;2022-08-21T04:12:54;15.60;99.90
22950;DHT22;11641;51.018;4.474;2022-08-21T04:15:24;15.50;99.90
22950;DHT22;11641;51.018;4.474;2022-08-21T04:17:50;15.60;99.90
22950;DHT22;11641;51.018;4.474;2022-08-21T04:20:17;15.60;99.90
22950;DHT22;11641;51.018;4.474;2022-08-21T04:22:43;15.60;99.90
22950;DHT22;11641;51.018;4.474;2022-08-21T04:25:13;15.60;99.90
22950;DHT22;11641;51.018;4.474;2022-08-21T04:27:41;15.60;99.90
22950;DHT22;11641;51.018;4.474;2022-08-21T04:30:08;15.70;99.90
22950;DHT22;11641;51.018;4.474;2022-08-21T04:32:35;15.70;99.90
22950;DHT22;11641;51.018;4.474;2022-08-21T04:35:06;15.70;99.90
22950;DHT22;11641;51.018;4.474;2022-08-21T04:37:32;15.70;99.90
22950;DHT22;11641;51.018;4.474;2022-08-21T04:39:57;15.60;99.90
22950;DHT22;11641;51.018;4.474;2022-08-21T04:42:24;15.70;99.90
22950;DHT22;11641;51.018;4.474;2022-08-21T04:44:51;15.60;99.90
22950;DHT22;11641;51.018;4.474;2022-08-21T04:47:18;15.50;99.90
22950;DHT22;11641;51.018;4.474;2022-08-21T04:49:47;15.60;99.90
22950;DHT22;11641;51.018;4.474;2022-08-21T04:52:17;15.50;99.90
22950;DHT22;11641;51.018;4.474;2022-08-21T04:54:45;15.50;99.90
22950;DHT22;11641;51.018;4.474;2022-08-21T04:57:13;15.60;99.90
22950;DHT22;11641;51.018;4.474;2022-08-21T04:59:47;15.60;99.90
22950;DHT22;11641;51.018;4.474;2022-08-21T05:02:15;15.60;99.90
22950;DHT22;11641;51.018;4.474;2022-08-21T05:04:48;15.50;99.90
22950;DHT22;11641;51.018;4.474;2022-08-21T05:07:19;15.30;99.90
22950;DHT22;11641;51.018;4.474;2022-08-21T05:09:45;15.50;99.90
22950;DHT22;11641;51.018;4.474;2022-08-21T05:12:12;15.60;99.90
22950;DHT22;11641;51.018;4.474;2022-08-21T05:14:40;15.60;99.90
22950;DHT22;11641;51.018;4.474;2022-08-21T05:17:08;15.60;99.90
22950;DHT22;11641;51.018;4.474;2022-08-21T05:19:34;15.60;99.90
22950;DHT22;11641;51.018;4.474;2022-08-21T05:22:00;15.70;99.90
22950;DHT22;11641;51.018;4.474;2022-08-21T05:24:26;15.80;99.90
22950;DHT22;11641;51.018;4.474;2022-08-21T05:26:52;15.80;99.90
22950;DHT22;11641;51.018;4.474;2022-08-21T05:29:18;15.80;99.90
22950;DHT22;11641;51.018;4.474;2022-08-21T05:31:46;15.90;99.90
22950;DHT22;11641;51.018;4.474;2022-08-21T05:34:14;16.00;99.90
22950;DHT22;11641;51.018;4.474;2022-08-21T05:36:40;16.00;99.90
22950;DHT22;11641;51.018;4.474;2022-08-21T05:39:05;16.10;99.90
22950;DHT22;11641;51.018;4.474;2022-08-21T05:41:31;16.10;99.90
22950;DHT22;11641;51.018;4.474;2022-08-21T05:43:57;16.10;99.90
22950;DHT22;11641;51.018;4.474;2022-08-21T05:46:23;16.20;99.90
22950;DHT22;11641;51.018;4.474;2022-08-21T05:48:53;16.20;99.90
22950;DHT22;11641;51.018;4.474;2022-08-21T05:51:20;16.10;99.90
22950;DHT22;11641;51.018;4.474;2022-08-21T05:53:46;16.20;99.90
22950;DHT22;11641;51.018;4.474;2022-08-21T05:56:13;16.30;99.90
22950;DHT22;11641;51.018;4.474;2022-08-21T05:58:39;16.30;99.90
22950;DHT22;11641;51.018;4.474;2022-08-21T06:01:06;16.30;99.90
22950;DHT22;11641;51.018;4.474;2022-08-21T06:03:36;16.40;99.90
22950;DHT22;11641;51.018;4.474;2022-08-21T06:06:05;16.50;99.90
22950;DHT22;11641;51.018;4.474;2022-08-21T06:08:31;16.40;99.90
22950;DHT22;11641;51.018;4.474;2022-08-21T06:10:59;16.50;99.90
22950;DHT22;11641;51.018;4.474;2022-08-21T06:13:26;16.30;99.90
22950;DHT22;11641;51.018;4.474;2022-08-21T06:16:16;16.50;99.90
22950;DHT22;11641;51.018;4.474;2022-08-21T06:18:43;16.60;99.90
22950;DHT22;11641;51.018;4.474;2022-08-21T06:21:11;16.60;99.90
22950;DHT22;11641;51.018;4.474;2022-08-21T06:23:39;16.70;99.90
22950;DHT22;11641;51.018;4.474;2022-08-21T06:26:07;16.80;99.90
22950;DHT22;11641;51.018;4.474;2022-08-21T06:28:33;16.90;99.90
22950;DHT22;11641;51.018;4.474;2022-08-21T06:31:00;16.90;99.90
22950;DHT22;11641;51.018;4.474;2022-08-21T06:33:26;17.00;99.90
22950;DHT22;11641;51.018;4.474;2022-08-21T06:35:52;17.10;99.90
22950;DHT22;11641;51.018;4.474;2022-08-21T06:38:18;17.10;99.90
22950;DHT22;11641;51.018;4.474;2022-08-21T06:40:46;17.00;99.90
22950;DHT22;11641;51.018;4.474;2022-08-21T06:43:14;17.00;99.90
22950;DHT22;11641;51.018;4.474;2022-08-21T06:45:42;17.20;99.90
22950;DHT22;11641;51.018;4.474;2022-08-21T06:48:11;17.30;99.90
22950;DHT22;11641;51.018;4.474;2022-08-21T06:50:37;17.40;99.90
22950;DHT22;11641;51.018;4.474;2022-08-21T06:53:10;17.40;99.90
22950;DHT22;11641;51.018;4.474;2022-08-21T06:55:37;17.60;99.90
22950;DHT22;11641;51.018;4.474;2022-08-21T06:58:04;17.70;99.90
22950;DHT22;11641;51.018;4.474;2022-08-21T07:00:31;17.70;99.90
22950;DHT22;11641;51.018;4.474;2022-08-21T07:02:59;17.80;99.90
22950;DHT22;11641;51.018;4.474;2022-08-21T07:05:27;18.00;99.90
22950;DHT22;11641;51.018;4.474;2022-08-21T07:07:53;18.20;99.90
22950;DHT22;11641;51.018;4.474;2022-08-21T07:10:21;18.30;99.90
22950;DHT22;11641;51.018;4.474;2022-08-21T07:12:47;18.50;99.90
22950;DHT22;11641;51.018;4.474;2022-08-21T07:15:13;18.50;99.90
22950;DHT22;11641;51.018;4.474;2022-08-21T07:17:39;18.60;99.90
22950;DHT22;11641;51.018;4.474;2022-08-21T07:20:05;18.60;99.90
22950;DHT22;11641;51.018;4.474;2022-08-21T07:22:32;18.80;99.90
22950;DHT22;11641;51.018;4.474;2022-08-21T07:24:58;18.80;99.90
22950;DHT22;11641;51.018;4.474;2022-08-21T07:27:25;19.00;99.90
22950;DHT22;11641;51.018;4.474;2022-08-21T07:29:51;19.10;99.90
22950;DHT22;11641;51.018;4.474;2022-08-21T07:32:17;19.30;99.90
22950;DHT22;11641;51.018;4.474;2022-08-21T07:34:42;19.50;99.90
22950;DHT22;11641;51.018;4.474;2022-08-21T07:37:08;19.60;99.90
22950;DHT22;11641;51.018;4.474;2022-08-21T07:39:37;19.70;99.90
22950;DHT22;11641;51.018;4.474;2022-08-21T07:42:03;19.80;99.90
22950;DHT22;11641;51.018;4.474;2022-08-21T07:44:29;20.00;99.90
22950;DHT22;11641;51.018;4.474;2022-08-21T07:46:55;20.10;99.90
22950;DHT22;11641;51.018;4.474;2022-08-21T07:49:22;20.30;99.90
22950;DHT22;11641;51.018;4.474;2022-08-21T07:51:47;20.50;99.90
22950;DHT22;11641;51.018;4.474;2022-08-21T07:54:13;20.70;99.90
22950;DHT22;11641;51.018;4.474;2022-08-21T07:56:41;20.80;99.90
22950;DHT22;11641;51.018;4.474;2022-08-21T07:59:10;21.00;99.90
22950;DHT22;11641;51.018;4.474;2022-08-21T08:01:35;21.00;99.90
22950;DHT22;11641;51.018;4.474;2022-08-21T08:04:02;21.10;99.90
22950;DHT22;11641;51.018;4.474;2022-08-21T08:06:29;21.20;99.90
22950;DHT22;11641;51.018;4.474;2022-08-21T08:08:55;21.50;99.90
22950;DHT22;11641;51.018;4.474;2022-08-21T08:11:21;21.50;99.90
22950;DHT22;11641;51.018;4.474;2022-08-21T08:13:51;21.70;99.90
22950;DHT22;11641;51.018;4.474;2022-08-21T08:16:18;21.80;99.90
22950;DHT22;11641;51.018;4.474;2022-08-21T08:18:44;21.60;99.90
22950;DHT22;11641;51.018;4.474;2022-08-21T08:21:11;21.70;99.90
22950;DHT22;11641;51.018;4.474;2022-08-21T08:23:39;21.70;99.90
22950;DHT22;11641;51.018;4.474;2022-08-21T08:26:05;22.10;99.90
22950;DHT22;11641;51.018;4.474;2022-08-21T08:28:32;22.10;99.90
22950;DHT22;11641;51.018;4.474;2022-08-21T08:31:00;22.10;99.90
22950;DHT22;11641;51.018;4.474;2022-08-21T08:33:26;22.00;99.90
22950;DHT22;11641;51.018;4.474;2022-08-21T08:35:53;22.10;99.90
22950;DHT22;11641;51.018;4.474;2022-08-21T08:38:20;22.30;99.90
22950;DHT22;11641;51.018;4.474;2022-08-21T08:41:08;22.10;99.90
22950;DHT22;11641;51.018;4.474;2022-08-21T08:43:38;22.20;99.90
22950;DHT22;11641;51.018;4.474;2022-08-21T08:46:24;22.30;99.90
22950;DHT22;11641;51.018;4.474;2022-08-21T08:48:58;22.10;99.90
22950;DHT22;11641;51.018;4.474;2022-08-21T08:51:57;22.40;99.90
22950;DHT22;11641;51.018;4.474;2022-08-21T08:54:33;22.70;99.90
22950;DHT22;11641;51.018;4.474;2022-08-21T08:57:02;22.60;99.90
22950;DHT22;11641;51.018;4.474;2022-08-21T08:59:54;22.80;99.90
22950;DHT22;11641;51.018;4.474;2022-08-21T09:02:21;23.10;99.90
22950;DHT22;11641;51.018;4.474;2022-08-21T09:04:53;23.40;99.90
22950;DHT22;11641;51.018;4.474;2022-08-21T09:07:46;23.40;99.90
22950;DHT22;11641;51.018;4.474;2022-08-21T09:10:21;23.50;99.90
22950;DHT22;11641;51.018;4.474;2022-08-21T09:16:01;23.70;99.90
22950;DHT22;11641;51.018;4.474;2022-08-21T09:26:42;24.20;99.90
22950;DHT22;11641;51.018;4.474;2022-08-21T09:29:13;24.30;99.90
22950;DHT22;11641;51.018;4.474;2022-08-21T09:31:43;24.30;99.90
22950;DHT22;11641;51.018;4.474;2022-08-21T09:34:10;24.70;99.90
22950;DHT22;11641;51.018;4.474;2022-08-21T09:36:48;25.60;99.90
22950;DHT22;11641;51.018;4.474;2022-08-21T09:39:38;26.70;99.90
22950;DHT22;11641;51.018;4.474;2022-08-21T09:42:07;27.50;99.90
22950;DHT22;11641;51.018;4.474;2022-08-21T09:44:38;27.10;99.90
22950;DHT22;11641;51.018;4.474;2022-08-21T09:47:07;27.60;99.30
22950;DHT22;11641;51.018;4.474;2022-08-21T09:49:35;28.10;97.20
22950;DHT22;11641;51.018;4.474;2022-08-21T09:52:03;27.40;97.40
22950;DHT22;11641;51.018;4.474;2022-08-21T09:54:32;26.90;99.90
22950;DHT22;11641;51.018;4.474;2022-08-21T09:57:11;26.60;99.90
22950;DHT22;11641;51.018;4.474;2022-08-21T10:00:11;26.00;99.90
22950;DHT22;11641;51.018;4.474;2022-08-21T10:02:42;26.10;99.90
22950;DHT22;11641;51.018;4.474;2022-08-21T10:05:26;25.90;99.90
22950;DHT22;11641;51.018;4.474;2022-08-21T10:07:53;26.70;99.90
22950;DHT22;11641;51.018;4.474;2022-08-21T10:10:25;28.10;99.50
22950;DHT22;11641;51.018;4.474;2022-08-21T10:13:19;29.40;95.80
22950;DHT22;11641;51.018;4.474;2022-08-21T10:18:40;30.50;91.80
22950;DHT22;11641;51.018;4.474;2022-08-21T10:24:37;31.30;87.50
22950;DHT22;11641;51.018;4.474;2022-08-21T10:27:28;32.70;81.20
22950;DHT22;11641;51.018;4.474;2022-08-21T10:30:03;32.80;77.40
22950;DHT22;11641;51.018;4.474;2022-08-21T10:35:39;32.80;74.40
22950;DHT22;11641;51.018;4.474;2022-08-21T10:40:49;32.40;78.80
22950;DHT22;11641;51.018;4.474;2022-08-21T10:46:54;30.60;80.70
22950;DHT22;11641;51.018;4.474;2022-08-21T10:49:40;29.80;84.20
22950;DHT22;11641;51.018;4.474;2022-08-21T10:52:23;30.40;84.00
22950;DHT22;11641;51.018;4.474;2022-08-21T10:55:08;32.80;76.50
22950;DHT22;11641;51.018;4.474;2022-08-21T10:57:57;34.20;72.70
22950;DHT22;11641;51.018;4.474;2022-08-21T11:00:32;36.80;64.20
22950;DHT22;11641;51.018;4.474;2022-08-21T11:03:39;35.90;64.20
22950;DHT22;11641;51.018;4.474;2022-08-21T11:06:15;35.80;65.70
22950;DHT22;11641;51.018;4.474;2022-08-21T11:08:50;36.10;63.10
22950;DHT22;11641;51.018;4.474;2022-08-21T11:11:25;34.90;63.10
22950;DHT22;11641;51.018;4.474;2022-08-21T11:14:01;34.20;66.00
22950;DHT22;11641;51.018;4.474;2022-08-21T11:16:40;33.70;68.40
22950;DHT22;11641;51.018;4.474;2022-08-21T11:21:58;35.10;63.10
22950;DHT22;11641;51.018;4.474;2022-08-21T11:25:00;35.70;60.70
22950;DHT22;11641;51.018;4.474;2022-08-21T11:27:31;37.00;58.20
22950;DHT22;11641;51.018;4.474;2022-08-21T11:29:59;38.70;55.40
22950;DHT22;11641;51.018;4.474;2022-08-21T11:32:39;38.40;55.20
22950;DHT22;11641;51.018;4.474;2022-08-21T11:40:59;38.20;54.50
22950;DHT22;11641;51.018;4.474;2022-08-21T11:43:43;39.20;53.40
22950;DHT22;11641;51.018;4.474;2022-08-21T11:52:09;37.20;55.90
22950;DHT22;11641;51.018;4.474;2022-08-21T11:54:47;36.70;56.40
22950;DHT22;11641;51.018;4.474;2022-08-21T12:00:33;35.80;56.80
22950;DHT22;11641;51.018;4.474;2022-08-21T12:03:16;33.70;59.60
22950;DHT22;11641;51.018;4.474;2022-08-21T12:06:16;33.60;61.60
22950;DHT22;11641;51.018;4.474;2022-08-21T12:09:01;37.30;57.50
22950;DHT22;11641;51.018;4.474;2022-08-21T12:11:29;36.90;55.20
22950;DHT22;11641;51.018;4.474;2022-08-21T12:16:45;42.30;50.10
22950;DHT22;11641;51.018;4.474;2022-08-21T12:22:11;41.30;47.10
22950;DHT22;11641;51.018;4.474;2022-08-21T12:32:31;42.00;45.50
22950;DHT22;11641;51.018;4.474;2022-08-21T12:35:21;40.20;46.60
22950;DHT22;11641;51.018;4.474;2022-08-21T12:37:59;38.50;49.70
22950;DHT22;11641;51.018;4.474;2022-08-21T12:40:39;36.50;52.10
22950;DHT22;11641;51.018;4.474;2022-08-21T12:43:18;36.10;52.30
22950;DHT22;11641;51.018;4.474;2022-08-21T12:45:48;36.10;52.70
22950;DHT22;11641;51.018;4.474;2022-08-21T12:51:17;38.60;48.50
22950;DHT22;11641;51.018;4.474;2022-08-21T12:56:16;41.00;45.70
22950;DHT22;11641;51.018;4.474;2022-08-21T12:59:11;39.80;46.00
22950;DHT22;11641;51.018;4.474;2022-08-21T13:01:39;38.30;47.90
22950;DHT22;11641;51.018;4.474;2022-08-21T13:04:12;37.80;50.40
22950;DHT22;11641;51.018;4.474;2022-08-21T13:06:43;37.20;50.10
22950;DHT22;11641;51.018;4.474;2022-08-21T13:09:19;35.80;51.90
22950;DHT22;11641;51.018;4.474;2022-08-21T13:11:48;34.60;53.60
22950;DHT22;11641;51.018;4.474;2022-08-21T13:14:36;32.80;56.50
22950;DHT22;11641;51.018;4.474;2022-08-21T13:17:04;31.60;59.60
22950;DHT22;11641;51.018;4.474;2022-08-21T13:19:31;30.70;61.80
22950;DHT22;11641;51.018;4.474;2022-08-21T13:21:58;30.60;62.20
22950;DHT22;11641;51.018;4.474;2022-08-21T13:24:27;30.70;61.80
22950;DHT22;11641;51.018;4.474;2022-08-21T13:26:56;31.90;61.30
22950;DHT22;11641;51.018;4.474;2022-08-21T13:29:27;32.40;58.70
22950;DHT22;11641;51.018;4.474;2022-08-21T13:31:58;32.40;58.80
22950;DHT22;11641;51.018;4.474;2022-08-21T13:34:30;32.50;59.20
22950;DHT22;11641;51.018;4.474;2022-08-21T13:37:05;31.90;59.00
22950;DHT22;11641;51.018;4.474;2022-08-21T13:39:31;32.20;60.00
22950;DHT22;11641;51.018;4.474;2022-08-21T13:42:00;32.40;59.40
22950;DHT22;11641;51.018;4.474;2022-08-21T13:44:41;34.30;58.10
22950;DHT22;11641;51.018;4.474;2022-08-21T13:47:10;35.70;54.00
22950;DHT22;11641;51.018;4.474;2022-08-21T13:49:39;37.60;51.90
22950;DHT22;11641;51.018;4.474;2022-08-21T13:52:26;37.50;51.20
22950;DHT22;11641;51.018;4.474;2022-08-21T13:54:57;36.40;51.80
22950;DHT22;11641;51.018;4.474;2022-08-21T13:57:32;36.70;52.20
22950;DHT22;11641;51.018;4.474;2022-08-21T14:00:18;38.90;49.70
22950;DHT22;11641;51.018;4.474;2022-08-21T14:02:51;39.10;49.80
22950;DHT22;11641;51.018;4.474;2022-08-21T14:05:29;39.30;48.40
22950;DHT22;11641;51.018;4.474;2022-08-21T14:10:43;37.00;51.80
22950;DHT22;11641;51.018;4.474;2022-08-21T14:13:41;37.50;50.90
22950;DHT22;11641;51.018;4.474;2022-08-21T14:16:26;37.50;51.30
22950;DHT22;11641;51.018;4.474;2022-08-21T14:21:32;39.50;48.10
22950;DHT22;11641;51.018;4.474;2022-08-21T14:24:12;40.90;45.60
22950;DHT22;11641;51.018;4.474;2022-08-21T14:27:01;41.70;42.80
22950;DHT22;11641;51.018;4.474;2022-08-21T14:29:36;41.90;41.80
22950;DHT22;11641;51.018;4.474;2022-08-21T14:32:34;40.60;43.70
22950;DHT22;11641;51.018;4.474;2022-08-21T14:35:01;40.40;43.50
22950;DHT22;11641;51.018;4.474;2022-08-21T14:37:28;39.10;45.70
22950;DHT22;11641;51.018;4.474;2022-08-21T14:39:53;38.80;45.70
22950;DHT22;11641;51.018;4.474;2022-08-21T14:42:20;38.70;45.70
22950;DHT22;11641;51.018;4.474;2022-08-21T14:44:46;39.50;45.50
22950;DHT22;11641;51.018;4.474;2022-08-21T14:47:12;39.70;44.90
22950;DHT22;11641;51.018;4.474;2022-08-21T14:49:40;39.80;44.80
22950;DHT22;11641;51.018;4.474;2022-08-21T14:52:06;38.40;45.80
22950;DHT22;11641;51.018;4.474;2022-08-21T14:54:33;37.40;47.00
22950;DHT22;11641;51.018;4.474;2022-08-21T14:57:08;35.20;49.80
22950;DHT22;11641;51.018;4.474;2022-08-21T14:59:38;33.80;52.70
22950;DHT22;11641;51.018;4.474;2022-08-21T15:02:03;32.80;53.30
22950;DHT22;11641;51.018;4.474;2022-08-21T15:04:30;32.60;54.70
22950;DHT22;11641;51.018;4.474;2022-08-21T15:06:56;31.80;55.70
22950;DHT22;11641;51.018;4.474;2022-08-21T15:09:23;31.60;56.40
22950;DHT22;11641;51.018;4.474;2022-08-21T15:11:49;30.70;58.40
22950;DHT22;11641;51.018;4.474;2022-08-21T15:14:26;31.20;58.30
22950;DHT22;11641;51.018;4.474;2022-08-21T15:16:53;31.40;58.00
22950;DHT22;11641;51.018;4.474;2022-08-21T15:19:21;31.40;57.50
22950;DHT22;11641;51.018;4.474;2022-08-21T15:21:48;31.40;57.60
22950;DHT22;11641;51.018;4.474;2022-08-21T15:24:17;31.50;57.40
22950;DHT22;11641;51.018;4.474;2022-08-21T15:26:47;31.30;58.30
22950;DHT22;11641;51.018;4.474;2022-08-21T15:29:13;31.00;59.10
22950;DHT22;11641;51.018;4.474;2022-08-21T15:31:57;30.90;60.00
22950;DHT22;11641;51.018;4.474;2022-08-21T15:34:25;30.60;61.20
22950;DHT22;11641;51.018;4.474;2022-08-21T15:36:52;30.10;60.70
22950;DHT22;11641;51.018;4.474;2022-08-21T15:39:20;29.20;63.60
22950;DHT22;11641;51.018;4.474;2022-08-21T15:41:48;29.10;64.30
22950;DHT22;11641;51.018;4.474;2022-08-21T15:44:14;29.20;65.10
22950;DHT22;11641;51.018;4.474;2022-08-21T15:46:41;28.90;64.80
22950;DHT22;11641;51.018;4.474;2022-08-21T15:49:07;29.00;65.40
22950;DHT22;11641;51.018;4.474;2022-08-21T15:51:35;28.80;65.10
22950;DHT22;11641;51.018;4.474;2022-08-21T15:54:01;28.10;65.50
22950;DHT22;11641;51.018;4.474;2022-08-21T15:56:33;27.90;67.90
22950;DHT22;11641;51.018;4.474;2022-08-21T15:59:05;27.70;68.90
22950;DHT22;11641;51.018;4.474;2022-08-21T16:01:35;27.50;70.10
22950;DHT22;11641;51.018;4.474;2022-08-21T16:04:02;27.50;70.40
22950;DHT22;11641;51.018;4.474;2022-08-21T16:06:29;27.60;70.10
22950;DHT22;11641;51.018;4.474;2022-08-21T16:08:58;27.70;69.80
22950;DHT22;11641;51.018;4.474;2022-08-21T16:11:27;27.70;69.70
22950;DHT22;11641;51.018;4.474;2022-08-21T16:13:54;27.60;69.80
22950;DHT22;11641;51.018;4.474;2022-08-21T16:16:22;27.40;71.50
22950;DHT22;11641;51.018;4.474;2022-08-21T16:18:50;27.40;71.00
22950;DHT22;11641;51.018;4.474;2022-08-21T16:21:17;27.20;71.70
22950;DHT22;11641;51.018;4.474;2022-08-21T16:23:43;26.90;72.10
22950;DHT22;11641;51.018;4.474;2022-08-21T16:26:13;26.50;74.20
22950;DHT22;11641;51.018;4.474;2022-08-21T16:28:42;26.60;74.50
22950;DHT22;11641;51.018;4.474;2022-08-21T16:31:11;26.60;75.40
22950;DHT22;11641;51.018;4.474;2022-08-21T16:33:49;26.50;74.20
22950;DHT22;11641;51.018;4.474;2022-08-21T16:36:17;26.50;74.60
22950;DHT22;11641;51.018;4.474;2022-08-21T16:38:44;26.40;75.50
22950;DHT22;11641;51.018;4.474;2022-08-21T16:41:15;26.30;76.00
22950;DHT22;11641;51.018;4.474;2022-08-21T16:43:42;26.30;76.70
22950;DHT22;11641;51.018;4.474;2022-08-21T16:46:11;26.20;77.10
22950;DHT22;11641;51.018;4.474;2022-08-21T16:48:39;26.00;77.40
22950;DHT22;11641;51.018;4.474;2022-08-21T16:51:07;26.00;77.90
22950;DHT22;11641;51.018;4.474;2022-08-21T16:53:33;25.90;78.80
22950;DHT22;11641;51.018;4.474;2022-08-21T16:56:05;25.80;79.10
22950;DHT22;11641;51.018;4.474;2022-08-21T16:58:37;25.90;79.70